Lantana, FL (33462)

5:36 AM EST on February 08, 2016 (GMT -0500)
Island Estates | | Change Station
CLOSE
Current Station
Personal Weather Station
Location: Lantana, FL
Elevation: 45 ft
Nearby Weather Stations

Elev 45 ft 26.57 °N, 80.08 °W | Updated 5 minutes ago

Clear
Clear
45.4 °F
Feels Like 45 °F
N
0.0
Wind Variable Wind from WNW
Gusts 1.0 mph

Today
High -- | Low -- °F
--% Chance of Precip.
Yesterday
High -- | Low -- °F
Precip. -- in
Pressure 30.06 in
Visibility 10.0 miles
Clouds Clear
Windchill 45 °F
Dew Point 40 °F
Humidity 81%
Rainfall 0.00 in
Snow Depth Not available.
7:01 AM 6:07 PM
Waning Crescent, 0% visible
METAR KPBI 080953Z 30007KT 10SM CLR 07/03 A3006 RMK AO2 SLP178 T00720028
Pressure 30.06 in
Visibility 10.0 miles
Clouds Clear
Windchill 45 °F
Dew Point 40 °F
Humidity 81%
Rainfall 0.00 in
Snow Depth Not available.
7:01 AM 6:07 PM
Waning Crescent, 0% visible
METAR KPBI 080953Z 30007KT 10SM CLR 07/03 A3006 RMK AO2 SLP178 T00720028

10-Day Weather Forecast

Almanac

Astronomy

Feb. 08, 2016 Rise Set
Actual Time
Civil Twilight
Nautical Twilight
Astronomical Twilight
Moon
Length of Visible Light
Length of Day
Tomorrow will be .
, % of the Moon is Illuminated

Today's Extremes

State Highs State Lows

Community

WunderPhotos

Upload Photos

1,891,420 photos uploaded!

WunderBlog® & News

Nearby

Air Quality

  Air Quality AQ Index Pollutant
Not available.

Snow Depth

Station Depth Elevation

Earthquake Activity

City Distance Mag. Time & Date
Minimum magnitude displayed is 2.5.

Coastal Water Temperatures

Place Temperature

Stations

Nearby Weather Stations

Station Location Temp. Windchill Dew Point Humidity Wind Precip. Elev Updated Type
                   

Watches & Warnings

There are currently no watches in effect.